sensor_id;sensor_type;location;lat;lon;timestamp;pressure;altitude;pressure_sealevel;temperature;humidity
37972;BME280;23794;48.234;8.344;2023-04-30T00:02:22;94496.41;;;9.08;72.64
37972;BME280;23794;48.234;8.344;2023-04-30T00:04:49;94492.16;;;9.18;72.05
37972;BME280;23794;48.234;8.344;2023-04-30T00:07:16;94496.84;;;9.21;72.43
37972;BME280;23794;48.234;8.344;2023-04-30T00:09:42;94498.81;;;9.31;72.22
37972;BME280;23794;48.234;8.344;2023-04-30T00:12:09;94493.72;;;9.22;72.18
37972;BME280;23794;48.234;8.344;2023-04-30T00:14:36;94490.25;;;9.29;71.85
37972;BME280;23794;48.234;8.344;2023-04-30T00:17:02;94494.53;;;9.26;72.85
37972;BME280;23794;48.234;8.344;2023-04-30T00:19:29;94489.84;;;9.27;73.30
37972;BME280;23794;48.234;8.344;2023-04-30T00:21:56;94490.25;;;9.33;72.03
37972;BME280;23794;48.234;8.344;2023-04-30T00:24:22;94491.38;;;9.17;71.96
37972;BME280;23794;48.234;8.344;2023-04-30T00:26:49;94480.47;;;9.21;72.84
37972;BME280;23794;48.234;8.344;2023-04-30T00:29:15;94483.19;;;9.17;72.74
37972;BME280;23794;48.234;8.344;2023-04-30T00:31:42;94490.63;;;9.27;72.63
37972;BME280;23794;48.234;8.344;2023-04-30T00:34:08;94494.91;;;9.25;72.59
37972;BME280;23794;48.234;8.344;2023-04-30T00:36:35;94490.22;;;9.22;73.28
37972;BME280;23794;48.234;8.344;2023-04-30T00:39:02;94489.06;;;9.26;72.67
37972;BME280;23794;48.234;8.344;2023-04-30T00:41:29;94486.34;;;9.26;72.40
37972;BME280;23794;48.234;8.344;2023-04-30T00:43:57;94483.59;;;9.26;72.46
37972;BME280;23794;48.234;8.344;2023-04-30T00:46:23;94481.56;;;9.02;73.42
37972;BME280;23794;48.234;8.344;2023-04-30T00:48:50;94479.59;;;9.06;73.45
37972;BME280;23794;48.234;8.344;2023-04-30T00:51:16;94483.19;;;9.17;72.96
37972;BME280;23794;48.234;8.344;2023-04-30T00:53:43;94475.00;;;9.28;72.63
37972;BME280;23794;48.234;8.344;2023-04-30T00:56:12;94482.78;;;9.19;73.30
37972;BME280;23794;48.234;8.344;2023-04-30T00:58:41;94476.16;;;9.23;72.82
37972;BME280;23794;48.234;8.344;2023-04-30T01:01:08;94474.97;;;9.10;73.28
37972;BME280;23794;48.234;8.344;2023-04-30T01:03:35;94473.78;;;9.07;73.21
37972;BME280;23794;48.234;8.344;2023-04-30T01:06:02;94469.09;;;9.11;73.61
37972;BME280;23794;48.234;8.344;2023-04-30T01:08:30;94473.81;;;9.18;72.91
37972;BME280;23794;48.234;8.344;2023-04-30T01:14:06;94473.31;;;8.91;74.55
37972;BME280;23794;48.234;8.344;2023-04-30T01:16:42;94467.91;;;9.02;74.01
37972;BME280;23794;48.234;8.344;2023-04-30T01:21:58;94455.38;;;8.97;74.42
37972;BME280;23794;48.234;8.344;2023-04-30T01:24:52;94451.88;;;8.96;74.42
37972;BME280;23794;48.234;8.344;2023-04-30T01:30:13;94442.44;;;8.87;74.67
37972;BME280;23794;48.234;8.344;2023-04-30T01:32:40;94443.66;;;8.89;74.77
37972;BME280;23794;48.234;8.344;2023-04-30T01:35:07;94441.66;;;8.82;75.22
37972;BME280;23794;48.234;8.344;2023-04-30T01:38:03;94446.31;;;8.75;75.33
37972;BME280;23794;48.234;8.344;2023-04-30T01:40:56;94447.81;;;8.61;75.77
37972;BME280;23794;48.234;8.344;2023-04-30T01:46:29;94441.56;;;8.57;76.18
37972;BME280;23794;48.234;8.344;2023-04-30T01:51:29;94437.94;;;8.42;76.71
37972;BME280;23794;48.234;8.344;2023-04-30T01:54:02;94433.34;;;8.54;76.39
37972;BME280;23794;48.234;8.344;2023-04-30T01:56:35;94431.06;;;8.63;75.70
37972;BME280;23794;48.234;8.344;2023-04-30T01:59:04;94436.91;;;8.68;76.34
37972;BME280;23794;48.234;8.344;2023-04-30T02:01:32;94437.75;;;8.80;75.77
37972;BME280;23794;48.234;8.344;2023-04-30T02:03:58;94436.66;;;8.95;75.05
37972;BME280;23794;48.234;8.344;2023-04-30T02:06:26;94432.72;;;8.89;75.47
37972;BME280;23794;48.234;8.344;2023-04-30T02:08:55;94425.69;;;8.85;75.40
37972;BME280;23794;48.234;8.344;2023-04-30T02:11:29;94433.88;;;8.81;75.55
37972;BME280;23794;48.234;8.344;2023-04-30T02:13:56;94437.75;;;8.76;75.65
37972;BME280;23794;48.234;8.344;2023-04-30T02:16:23;94441.25;;;8.80;75.69
37972;BME280;23794;48.234;8.344;2023-04-30T02:18:50;94434.22;;;8.76;75.80
37972;BME280;23794;48.234;8.344;2023-04-30T02:21:17;94438.94;;;8.86;75.44
37972;BME280;23794;48.234;8.344;2023-04-30T02:23:45;94451.84;;;8.86;75.27
37972;BME280;23794;48.234;8.344;2023-04-30T02:26:12;94450.59;;;8.72;75.75
37972;BME280;23794;48.234;8.344;2023-04-30T02:28:39;94454.84;;;8.66;76.25
37972;BME280;23794;48.234;8.344;2023-04-30T02:31:05;94447.84;;;8.68;75.72
37972;BME280;23794;48.234;8.344;2023-04-30T02:33:32;94444.38;;;8.79;75.38
37972;BME280;23794;48.234;8.344;2023-04-30T02:35:59;94444.41;;;8.82;75.48
37972;BME280;23794;48.234;8.344;2023-04-30T02:38:26;94445.13;;;8.72;75.36
37972;BME280;23794;48.234;8.344;2023-04-30T02:40:52;94445.13;;;8.72;76.00
37972;BME280;23794;48.234;8.344;2023-04-30T02:43:19;94452.56;;;8.72;75.81
37972;BME280;23794;48.234;8.344;2023-04-30T02:45:46;94447.13;;;8.82;75.80
37972;BME280;23794;48.234;8.344;2023-04-30T02:48:13;94450.69;;;8.94;75.70
37972;BME280;23794;48.234;8.344;2023-04-30T02:50:40;94450.66;;;8.90;75.64
37972;BME280;23794;48.234;8.344;2023-04-30T02:53:07;94456.13;;;8.87;75.51
37972;BME280;23794;48.234;8.344;2023-04-30T02:55:33;94455.28;;;8.72;75.94
37972;BME280;23794;48.234;8.344;2023-04-30T02:58:00;94458.38;;;8.63;76.88
37972;BME280;23794;48.234;8.344;2023-04-30T03:00:26;94459.13;;;8.63;76.70
37972;BME280;23794;48.234;8.344;2023-04-30T03:02:53;94455.91;;;8.47;77.22
37972;BME280;23794;48.234;8.344;2023-04-30T03:05:20;94450.09;;;8.52;77.05
37972;BME280;23794;48.234;8.344;2023-04-30T03:07:47;94444.72;;;8.66;76.78
37972;BME280;23794;48.234;8.344;2023-04-30T03:10:13;94446.69;;;8.70;76.33
37972;BME280;23794;48.234;8.344;2023-04-30T03:12:40;94436.78;;;8.43;77.77
37972;BME280;23794;48.234;8.344;2023-04-30T03:15:07;94438.44;;;8.62;76.76
37972;BME280;23794;48.234;8.344;2023-04-30T03:17:34;94437.31;;;8.71;76.75
37972;BME280;23794;48.234;8.344;2023-04-30T03:20:01;94433.06;;;8.77;76.44
37972;BME280;23794;48.234;8.344;2023-04-30T03:22:28;94438.47;;;8.66;76.76
37972;BME280;23794;48.234;8.344;2023-04-30T03:24:54;94431.47;;;8.76;76.00
37972;BME280;23794;48.234;8.344;2023-04-30T03:27:21;94442.06;;;8.81;75.90
37972;BME280;23794;48.234;8.344;2023-04-30T03:29:48;94431.84;;;8.67;75.54
37972;BME280;23794;48.234;8.344;2023-04-30T03:32:14;94439.19;;;8.56;76.58
37972;BME280;23794;48.234;8.344;2023-04-30T03:34:41;94436.81;;;8.50;76.78
37972;BME280;23794;48.234;8.344;2023-04-30T03:37:07;94442.31;;;8.58;76.44
37972;BME280;23794;48.234;8.344;2023-04-30T03:39:34;94438.81;;;8.54;76.42
37972;BME280;23794;48.234;8.344;2023-04-30T03:42:01;94438.72;;;8.35;77.31
37972;BME280;23794;48.234;8.344;2023-04-30T03:44:29;94441.47;;;8.39;77.06
37972;BME280;23794;48.234;8.344;2023-04-30T03:46:55;94433.31;;;8.46;76.93
37972;BME280;23794;48.234;8.344;2023-04-30T03:49:22;94437.59;;;8.44;77.12
37972;BME280;23794;48.234;8.344;2023-04-30T03:51:49;94432.88;;;8.41;77.04
37972;BME280;23794;48.234;8.344;2023-04-30T03:54:16;94434.06;;;8.47;76.52
37972;BME280;23794;48.234;8.344;2023-04-30T03:56:43;94438.84;;;8.61;76.81
37972;BME280;23794;48.234;8.344;2023-04-30T03:59:10;94432.53;;;8.53;76.32
37972;BME280;23794;48.234;8.344;2023-04-30T04:01:36;94430.66;;;8.61;76.50
37972;BME280;23794;48.234;8.344;2023-04-30T04:04:03;94426.38;;;8.67;76.09
37972;BME280;23794;48.234;8.344;2023-04-30T04:06:31;94436.06;;;8.54;76.18
37972;BME280;23794;48.234;8.344;2023-04-30T04:08:58;94434.84;;;8.40;76.74
37972;BME280;23794;48.234;8.344;2023-04-30T04:11:25;94439.16;;;8.48;76.48
37972;BME280;23794;48.234;8.344;2023-04-30T04:13:51;94434.16;;;8.65;76.46
37972;BME280;23794;48.234;8.344;2023-04-30T04:16:18;94438.91;;;8.75;75.50
37972;BME280;23794;48.234;8.344;2023-04-30T04:18:45;94434.22;;;8.79;75.85
37972;BME280;23794;48.234;8.344;2023-04-30T04:21:11;94441.66;;;8.82;75.19
37972;BME280;23794;48.234;8.344;2023-04-30T04:23:38;94434.97;;;8.69;75.72
37972;BME280;23794;48.234;8.344;2023-04-30T04:26:05;94443.19;;;8.69;75.65
37972;BME280;23794;48.234;8.344;2023-04-30T04:28:31;94427.53;;;8.66;75.30
37972;BME280;23794;48.234;8.344;2023-04-30T04:30:58;94433.81;;;8.70;75.67
37972;BME280;23794;48.234;8.344;2023-04-30T04:33:25;94432.31;;;8.83;75.28
37972;BME280;23794;48.234;8.344;2023-04-30T04:35:51;94428.41;;;8.85;75.01
37972;BME280;23794;48.234;8.344;2023-04-30T04:38:18;94431.88;;;8.74;74.50
37972;BME280;23794;48.234;8.344;2023-04-30T04:40:54;94427.94;;;8.68;75.57
37972;BME280;23794;48.234;8.344;2023-04-30T04:43:21;94429.94;;;8.78;75.59
37972;BME280;23794;48.234;8.344;2023-04-30T04:45:48;94435.03;;;8.80;75.20
37972;BME280;23794;48.234;8.344;2023-04-30T04:48:15;94434.16;;;8.65;74.87
37972;BME280;23794;48.234;8.344;2023-04-30T04:50:41;94445.88;;;8.65;75.21
37972;BME280;23794;48.234;8.344;2023-04-30T04:53:08;94441.91;;;8.56;75.28
37972;BME280;23794;48.234;8.344;2023-04-30T04:55:35;94450.50;;;8.58;75.53
37972;BME280;23794;48.234;8.344;2023-04-30T04:58:01;94447.06;;;8.64;75.19
37972;BME280;23794;48.234;8.344;2023-04-30T05:00:28;94450.19;;;8.63;74.99
37972;BME280;23794;48.234;8.344;2023-04-30T05:02:55;94454.03;;;8.58;74.85
37972;BME280;23794;48.234;8.344;2023-04-30T05:05:22;94443.09;;;8.55;74.91
37972;BME280;23794;48.234;8.344;2023-04-30T05:07:48;94452.50;;;8.61;74.94
37972;BME280;23794;48.234;8.344;2023-04-30T05:10:18;94447.47;;;8.70;75.47
37972;BME280;23794;48.234;8.344;2023-04-30T05:12:44;94459.59;;;8.76;75.24
37972;BME280;23794;48.234;8.344;2023-04-30T05:15:11;94458.09;;;8.90;74.92
37972;BME280;23794;48.234;8.344;2023-04-30T05:17:38;94448.22;;;8.63;74.67
37972;BME280;23794;48.234;8.344;2023-04-30T05:20:05;94458.75;;;8.68;74.54
37972;BME280;23794;48.234;8.344;2023-04-30T05:22:33;94460.75;;;8.75;74.75
37972;BME280;23794;48.234;8.344;2023-04-30T05:25:00;94456.53;;;8.89;73.74
37972;BME280;23794;48.234;8.344;2023-04-30T05:27:26;94459.19;;;8.74;74.18
37972;BME280;23794;48.234;8.344;2023-04-30T05:29:53;94462.69;;;8.75;74.36
37972;BME280;23794;48.234;8.344;2023-04-30T05:32:21;94460.31;;;8.66;74.54
37972;BME280;23794;48.234;8.344;2023-04-30T05:34:48;94464.22;;;8.65;74.58
37972;BME280;23794;48.234;8.344;2023-04-30T05:37:15;94465.78;;;8.66;74.61
37972;BME280;23794;48.234;8.344;2023-04-30T05:39:43;94464.97;;;8.58;74.87
37972;BME280;23794;48.234;8.344;2023-04-30T05:42:09;94466.44;;;8.45;75.19
37972;BME280;23794;48.234;8.344;2023-04-30T05:44:36;94467.19;;;8.38;75.40
37972;BME280;23794;48.234;8.344;2023-04-30T05:47:02;94464.47;;;8.42;75.56
37972;BME280;23794;48.234;8.344;2023-04-30T05:49:29;94455.13;;;8.43;75.25
37972;BME280;23794;48.234;8.344;2023-04-30T05:51:57;94460.53;;;8.32;75.51
37972;BME280;23794;48.234;8.344;2023-04-30T05:54:23;94462.53;;;8.46;75.12
37972;BME280;23794;48.234;8.344;2023-04-30T05:56:50;94466.94;;;8.68;75.08
37972;BME280;23794;48.234;8.344;2023-04-30T05:59:16;94454.16;;;8.83;74.15
37972;BME280;23794;48.234;8.344;2023-04-30T06:01:43;94451.84;;;8.89;73.68
37972;BME280;23794;48.234;8.344;2023-04-30T06:04:10;94449.09;;;8.86;73.88
37972;BME280;23794;48.234;8.344;2023-04-30T06:06:37;94445.50;;;8.71;74.03
37972;BME280;23794;48.234;8.344;2023-04-30T06:09:03;94452.13;;;8.70;73.96
37972;BME280;23794;48.234;8.344;2023-04-30T06:11:30;94451.00;;;8.74;73.59
37972;BME280;23794;48.234;8.344;2023-04-30T06:13:57;94444.78;;;8.81;73.74
37972;BME280;23794;48.234;8.344;2023-04-30T06:16:24;94451.78;;;8.82;73.87
37972;BME280;23794;48.234;8.344;2023-04-30T06:18:50;94450.63;;;8.83;73.12
37972;BME280;23794;48.234;8.344;2023-04-30T06:21:19;94444.00;;;8.84;73.57
37972;BME280;23794;48.234;8.344;2023-04-30T06:23:46;94439.66;;;8.72;73.68
37972;BME280;23794;48.234;8.344;2023-04-30T06:26:12;94434.69;;;8.92;73.44
37972;BME280;23794;48.234;8.344;2023-04-30T06:28:40;94439.78;;;9.08;72.94
37972;BME280;23794;48.234;8.344;2023-04-30T06:31:07;94436.97;;;8.79;73.26
37972;BME280;23794;48.234;8.344;2023-04-30T06:33:34;94436.63;;;8.85;73.14
37972;BME280;23794;48.234;8.344;2023-04-30T06:36:00;94435.84;;;8.95;72.91
37972;BME280;23794;48.234;8.344;2023-04-30T06:38:27;94431.63;;;9.12;72.07
37972;BME280;23794;48.234;8.344;2023-04-30T06:40:54;94427.72;;;9.13;71.74
37972;BME280;23794;48.234;8.344;2023-04-30T06:43:21;94430.09;;;9.18;71.99
37972;BME280;23794;48.234;8.344;2023-04-30T06:45:48;94436.75;;;9.35;70.77
37972;BME280;23794;48.234;8.344;2023-04-30T06:48:15;94434.47;;;9.44;70.68
37972;BME280;23794;48.234;8.344;2023-04-30T06:50:41;94436.84;;;9.71;71.14
37972;BME280;23794;48.234;8.344;2023-04-30T06:53:11;94430.19;;;9.94;68.87
37972;BME280;23794;48.234;8.344;2023-04-30T06:55:39;94434.09;;;9.71;69.19
37972;BME280;23794;48.234;8.344;2023-04-30T06:58:06;94430.97;;;9.62;69.83
37972;BME280;23794;48.234;8.344;2023-04-30T07:00:33;94429.03;;;9.66;69.72
37972;BME280;23794;48.234;8.344;2023-04-30T07:03:00;94434.09;;;9.93;69.12
37972;BME280;23794;48.234;8.344;2023-04-30T07:05:29;94433.72;;;10.13;68.59
37972;BME280;23794;48.234;8.344;2023-04-30T07:07:57;94434.91;;;9.97;68.92
37972;BME280;23794;48.234;8.344;2023-04-30T07:10:23;94434.09;;;9.89;69.21
37972;BME280;23794;48.234;8.344;2023-04-30T07:12:50;94432.94;;;9.83;69.22
37972;BME280;23794;48.234;8.344;2023-04-30T07:15:17;94436.84;;;9.89;69.40
37972;BME280;23794;48.234;8.344;2023-04-30T07:17:43;94434.09;;;9.97;69.14
37972;BME280;23794;48.234;8.344;2023-04-30T07:20:11;94432.53;;;10.35;68.67
37972;BME280;23794;48.234;8.344;2023-04-30T07:22:42;94435.16;;;10.75;67.60
37972;BME280;23794;48.234;8.344;2023-04-30T07:25:12;94441.81;;;10.78;66.11
37972;BME280;23794;48.234;8.344;2023-04-30T07:27:39;94436.34;;;10.67;66.96
37972;BME280;23794;48.234;8.344;2023-04-30T07:30:07;94434.38;;;10.67;67.09
37972;BME280;23794;48.234;8.344;2023-04-30T07:32:36;94438.66;;;10.83;65.93
37972;BME280;23794;48.234;8.344;2023-04-30T07:35:03;94434.75;;;10.77;67.00
37972;BME280;23794;48.234;8.344;2023-04-30T07:37:30;94434.72;;;10.84;66.26
37972;BME280;23794;48.234;8.344;2023-04-30T07:40:00;94426.06;;;11.11;66.29
37972;BME280;23794;48.234;8.344;2023-04-30T07:42:27;94425.25;;;11.14;65.14
37972;BME280;23794;48.234;8.344;2023-04-30T07:44:54;94420.84;;;11.34;64.47
37972;BME280;23794;48.234;8.344;2023-04-30T07:47:20;94420.72;;;11.52;64.51
37972;BME280;23794;48.234;8.344;2023-04-30T07:49:48;94414.94;;;11.36;64.12
37972;BME280;23794;48.234;8.344;2023-04-30T07:52:14;94421.50;;;11.53;64.87
37972;BME280;23794;48.234;8.344;2023-04-30T07:54:41;94420.50;;;11.85;64.02
37972;BME280;23794;48.234;8.344;2023-04-30T07:57:08;94412.97;;;11.93;62.80
37972;BME280;23794;48.234;8.344;2023-04-30T07:59:34;94421.97;;;11.97;62.28
37972;BME280;23794;48.234;8.344;2023-04-30T08:02:01;94419.31;;;11.86;63.08
37972;BME280;23794;48.234;8.344;2023-04-30T08:04:28;94425.91;;;11.96;63.65
37972;BME280;23794;48.234;8.344;2023-04-30T08:06:54;94427.84;;;11.95;62.28
37972;BME280;23794;48.234;8.344;2023-04-30T08:09:21;94420.38;;;11.47;63.28
37972;BME280;23794;48.234;8.344;2023-04-30T08:11:48;94419.84;;;11.63;63.37
37972;BME280;23794;48.234;8.344;2023-04-30T08:14:14;94413.50;;;11.77;62.62
37972;BME280;23794;48.234;8.344;2023-04-30T08:16:41;94418.22;;;11.76;63.16
37972;BME280;23794;48.234;8.344;2023-04-30T08:19:08;94417.47;;;11.68;61.64
37972;BME280;23794;48.234;8.344;2023-04-30T08:21:34;94427.84;;;11.39;62.14
37972;BME280;23794;48.234;8.344;2023-04-30T08:24:01;94414.59;;;11.27;63.14
37972;BME280;23794;48.234;8.344;2023-04-30T08:26:28;94421.84;;;11.62;62.40
37972;BME280;23794;48.234;8.344;2023-04-30T08:28:54;94409.41;;;11.47;61.82
37972;BME280;23794;48.234;8.344;2023-04-30T08:31:21;94419.56;;;11.54;62.32
37972;BME280;23794;48.234;8.344;2023-04-30T08:33:48;94421.72;;;11.77;62.60
37972;BME280;23794;48.234;8.344;2023-04-30T08:36:14;94424.25;;;12.06;61.32
37972;BME280;23794;48.234;8.344;2023-04-30T08:38:41;94419.88;;;12.12;60.88
37972;BME280;23794;48.234;8.344;2023-04-30T08:41:10;94430.28;;;12.39;60.77
37972;BME280;23794;48.234;8.344;2023-04-30T08:43:38;94424.38;;;12.40;59.27
37972;BME280;23794;48.234;8.344;2023-04-30T08:46:04;94426.50;;;11.65;61.65
37972;BME280;23794;48.234;8.344;2023-04-30T08:48:32;94425.38;;;11.59;62.23
37972;BME280;23794;48.234;8.344;2023-04-30T08:51:03;94424.25;;;11.53;62.30
37972;BME280;23794;48.234;8.344;2023-04-30T08:53:30;94424.50;;;11.73;62.26
37972;BME280;23794;48.234;8.344;2023-04-30T08:55:59;94429.19;;;11.76;61.12
37972;BME280;23794;48.234;8.344;2023-04-30T08:58:26;94429.66;;;12.16;61.31
37972;BME280;23794;48.234;8.344;2023-04-30T09:00:53;94432.47;;;12.55;59.71
37972;BME280;23794;48.234;8.344;2023-04-30T09:03:19;94431.28;;;12.56;58.62
37972;BME280;23794;48.234;8.344;2023-04-30T09:05:49;94425.31;;;12.61;59.46
37972;BME280;23794;48.234;8.344;2023-04-30T09:08:17;94435.72;;;12.81;58.43
37972;BME280;23794;48.234;8.344;2023-04-30T09:10:45;94429.13;;;13.05;57.36
37972;BME280;23794;48.234;8.344;2023-04-30T09:13:12;94428.75;;;13.07;57.60
37972;BME280;23794;48.234;8.344;2023-04-30T09:15:40;94440.75;;;13.20;56.47
37972;BME280;23794;48.234;8.344;2023-04-30T09:18:12;94429.00;;;13.47;55.99
37972;BME280;23794;48.234;8.344;2023-04-30T09:21:12;94427.97;;;13.06;55.76
37972;BME280;23794;48.234;8.344;2023-04-30T09:24:02;94427.81;;;13.17;55.54
37972;BME280;23794;48.234;8.344;2023-04-30T09:26:34;94423.16;;;13.45;56.84
37972;BME280;23794;48.234;8.344;2023-04-30T09:29:03;94420.66;;;13.82;54.02
37972;BME280;23794;48.234;8.344;2023-04-30T09:31:34;94423.03;;;13.83;54.97
37972;BME280;23794;48.234;8.344;2023-04-30T09:34:04;94424.19;;;13.55;53.96
37972;BME280;23794;48.234;8.344;2023-04-30T09:36:32;94436.03;;;13.21;55.10
37972;BME280;23794;48.234;8.344;2023-04-30T09:39:10;94428.34;;;13.08;56.07
37972;BME280;23794;48.234;8.344;2023-04-30T09:41:41;94422.59;;;13.26;55.34
37972;BME280;23794;48.234;8.344;2023-04-30T09:44:28;94425.28;;;12.99;55.47
37972;BME280;23794;48.234;8.344;2023-04-30T09:46:58;94421.63;;;13.09;56.10
37972;BME280;23794;48.234;8.344;2023-04-30T09:49:25;94423.50;;;13.20;55.14
37972;BME280;23794;48.234;8.344;2023-04-30T09:52:00;94420.03;;;13.43;55.66
37972;BME280;23794;48.234;8.344;2023-04-30T09:54:30;94416.34;;;13.26;54.24
37972;BME280;23794;48.234;8.344;2023-04-30T09:56:59;94415.81;;;13.35;55.14
37972;BME280;23794;48.234;8.344;2023-04-30T09:59:34;94428.03;;;13.61;54.57
37972;BME280;23794;48.234;8.344;2023-04-30T10:02:03;94420.69;;;13.51;53.12
37972;BME280;23794;48.234;8.344;2023-04-30T10:04:32;94423.66;;;13.64;53.95
37972;BME280;23794;48.234;8.344;2023-04-30T10:07:02;94402.53;;;13.84;52.38
37972;BME280;23794;48.234;8.344;2023-04-30T10:09:38;94415.09;;;14.57;52.49
37972;BME280;23794;48.234;8.344;2023-04-30T10:12:08;94405.38;;;15.32;48.75
37972;BME280;23794;48.234;8.344;2023-04-30T10:14:36;94403.47;;;15.29;47.98
37972;BME280;23794;48.234;8.344;2023-04-30T10:17:10;94403.81;;;15.31;49.63
37972;BME280;23794;48.234;8.344;2023-04-30T10:19:45;94398.28;;;15.31;48.59
37972;BME280;23794;48.234;8.344;2023-04-30T10:22:13;94381.66;;;15.88;48.70
37972;BME280;23794;48.234;8.344;2023-04-30T10:24:41;94388.19;;;16.44;49.13
37972;BME280;23794;48.234;8.344;2023-04-30T10:27:08;94376.19;;;16.34;46.40
37972;BME280;23794;48.234;8.344;2023-04-30T10:29:35;94367.41;;;16.23;46.70
37972;BME280;23794;48.234;8.344;2023-04-30T10:32:02;94365.00;;;16.08;47.65
37972;BME280;23794;48.234;8.344;2023-04-30T10:37:14;94382.56;;;15.82;46.61
37972;BME280;23794;48.234;8.344;2023-04-30T10:39:44;94381.97;;;15.21;47.33
37972;BME280;23794;48.234;8.344;2023-04-30T10:42:11;94380.09;;;14.53;48.42
37972;BME280;23794;48.234;8.344;2023-04-30T10:44:38;94369.91;;;14.30;49.39
37972;BME280;23794;48.234;8.344;2023-04-30T10:47:06;94369.09;;;14.53;49.75
37972;BME280;23794;48.234;8.344;2023-04-30T10:49:33;94372.00;;;14.66;49.29
37972;BME280;23794;48.234;8.344;2023-04-30T10:52:02;94379.47;;;14.90;49.18
37972;BME280;23794;48.234;8.344;2023-04-30T10:54:33;94380.22;;;15.10;48.28
37972;BME280;23794;48.234;8.344;2023-04-30T10:57:11;94378.59;;;14.93;47.99
37972;BME280;23794;48.234;8.344;2023-04-30T10:59:53;94372.03;;;15.07;48.43
37972;BME280;23794;48.234;8.344;2023-04-30T11:02:43;94377.94;;;15.05;48.56
37972;BME280;23794;48.234;8.344;2023-04-30T11:05:18;94368.84;;;15.45;48.50
37972;BME280;23794;48.234;8.344;2023-04-30T11:07:50;94357.22;;;15.70;47.44
37972;BME280;23794;48.234;8.344;2023-04-30T11:10:21;94366.13;;;16.11;47.43
37972;BME280;23794;48.234;8.344;2023-04-30T11:12:50;94366.03;;;16.15;44.62
37972;BME280;23794;48.234;8.344;2023-04-30T11:15:19;94351.66;;;15.37;45.77
37972;BME280;23794;48.234;8.344;2023-04-30T11:17:47;94362.19;;;15.59;46.90
37972;BME280;23794;48.234;8.344;2023-04-30T11:20:19;94356.19;;;15.97;45.20
37972;BME280;23794;48.234;8.344;2023-04-30T11:22:47;94359.97;;;15.70;46.02
37972;BME280;23794;48.234;8.344;2023-04-30T11:25:21;94361.25;;;15.66;45.86
37972;BME280;23794;48.234;8.344;2023-04-30T11:27:49;94357.88;;;15.41;45.00
37972;BME280;23794;48.234;8.344;2023-04-30T11:30:17;94361.84;;;15.40;45.14
37972;BME280;23794;48.234;8.344;2023-04-30T11:32:46;94361.44;;;15.22;46.31
37972;BME280;23794;48.234;8.344;2023-04-30T11:35:16;94358.53;;;15.29;47.21
37972;BME280;23794;48.234;8.344;2023-04-30T11:37:44;94353.38;;;15.31;46.60
37972;BME280;23794;48.234;8.344;2023-04-30T11:40:12;94357.41;;;15.79;45.75
37972;BME280;23794;48.234;8.344;2023-04-30T11:42:41;94348.94;;;15.70;45.29
37972;BME280;23794;48.234;8.344;2023-04-30T11:45:13;94344.88;;;15.91;45.86
37972;BME280;23794;48.234;8.344;2023-04-30T11:47:47;94349.56;;;16.11;45.21
37972;BME280;23794;48.234;8.344;2023-04-30T11:50:15;94345.72;;;15.72;44.12
37972;BME280;23794;48.234;8.344;2023-04-30T11:52:48;94343.59;;;15.63;45.13
37972;BME280;23794;48.234;8.344;2023-04-30T11:55:16;94338.16;;;15.23;46.40
37972;BME280;23794;48.234;8.344;2023-04-30T11:57:44;94343.25;;;15.08;45.52
37972;BME280;23794;48.234;8.344;2023-04-30T12:00:16;94340.03;;;15.46;46.06
37972;BME280;23794;48.234;8.344;2023-04-30T12:02:45;94336.91;;;15.77;45.76
37972;BME280;23794;48.234;8.344;2023-04-30T12:05:14;94337.28;;;16.12;45.20
37972;BME280;23794;48.234;8.344;2023-04-30T12:07:47;94343.06;;;16.18;43.69
37972;BME280;23794;48.234;8.344;2023-04-30T12:10:14;94350.47;;;16.21;45.94
37972;BME280;23794;48.234;8.344;2023-04-30T12:12:44;94347.81;;;16.17;45.01
37972;BME280;23794;48.234;8.344;2023-04-30T12:15:12;94342.88;;;15.59;45.02
37972;BME280;23794;48.234;8.344;2023-04-30T12:17:39;94350.53;;;15.35;44.72
37972;BME280;23794;48.234;8.344;2023-04-30T12:20:07;94349.72;;;15.18;45.33
37972;BME280;23794;48.234;8.344;2023-04-30T12:22:35;94342.59;;;14.80;45.14
37972;BME280;23794;48.234;8.344;2023-04-30T12:25:07;94350.94;;;14.76;45.54
37972;BME280;23794;48.234;8.344;2023-04-30T12:27:35;94352.72;;;14.87;46.28
37972;BME280;23794;48.234;8.344;2023-04-30T12:30:04;94345.94;;;15.28;46.20
37972;BME280;23794;48.234;8.344;2023-04-30T12:32:41;94352.13;;;15.52;45.14
37972;BME280;23794;48.234;8.344;2023-04-30T12:35:13;94355.63;;;15.53;45.75
37972;BME280;23794;48.234;8.344;2023-04-30T12:37:42;94354.28;;;15.61;44.93
37972;BME280;23794;48.234;8.344;2023-04-30T12:40:11;94342.53;;;14.83;45.96
37972;BME280;23794;48.234;8.344;2023-04-30T12:42:38;94345.78;;;14.98;46.48
37972;BME280;23794;48.234;8.344;2023-04-30T12:45:05;94346.06;;;15.04;46.95
37972;BME280;23794;48.234;8.344;2023-04-30T12:47:37;94354.13;;;15.15;45.90
37972;BME280;23794;48.234;8.344;2023-04-30T12:50:11;94356.69;;;15.06;45.09
37972;BME280;23794;48.234;8.344;2023-04-30T12:52:38;94347.28;;;14.83;45.39
37972;BME280;23794;48.234;8.344;2023-04-30T12:55:21;94341.88;;;15.16;45.25
37972;BME280;23794;48.234;8.344;2023-04-30T12:58:07;94332.19;;;15.77;44.57
37972;BME280;23794;48.234;8.344;2023-04-30T13:03:11;94315.09;;;16.74;42.48
37972;BME280;23794;48.234;8.344;2023-04-30T13:05:48;94322.28;;;16.42;41.75
37972;BME280;23794;48.234;8.344;2023-04-30T13:08:15;94304.09;;;16.29;42.80
37972;BME280;23794;48.234;8.344;2023-04-30T13:10:42;94307.97;;;16.31;42.30
37972;BME280;23794;48.234;8.344;2023-04-30T13:13:10;94311.47;;;15.53;43.44
37972;BME280;23794;48.234;8.344;2023-04-30T13:15:37;94318.75;;;15.10;44.65
37972;BME280;23794;48.234;8.344;2023-04-30T13:18:04;94315.28;;;15.75;43.63
37972;BME280;23794;48.234;8.344;2023-04-30T13:20:35;94303.66;;;16.60;42.03
37972;BME280;23794;48.234;8.344;2023-04-30T13:23:02;94300.06;;;16.46;41.83
37972;BME280;23794;48.234;8.344;2023-04-30T13:25:30;94305.28;;;16.44;42.85
37972;BME280;23794;48.234;8.344;2023-04-30T13:27:57;94296.50;;;16.75;41.69
37972;BME280;23794;48.234;8.344;2023-04-30T13:30:24;94304.00;;;17.04;42.17
37972;BME280;23794;48.234;8.344;2023-04-30T13:32:51;94295.72;;;17.56;40.92